ROU1900 CYYJ-CYYZ
Flight info
| Callsign | ROU1900 |
|---|---|
| Flight time | N/A |
| Altitude | 35000 |
| Route | CYYJ6/09 SQURL DCT ALNOD DCT IKNIX DCT YQL/N0450F370 DCT AGLIN DCT OTNIK BOXUM7 |
| Aircraft | A319/M-SDE3FGHIRWY/LB1 |
Departure
| Time | N/A |
|---|---|
| Airport | Victoria International Airport (CYYJ) |
Arrival
| Time | 2026-05-03 22:45 |
|---|---|
| Airport | Toronto Pearson International Airport (CYYZ) |
| Time | Latitude | Longitude | Altitude | Speed | Heading |
|---|---|---|---|---|---|
| 2026-05-03 22:20 | 45.25533 | -81.58729 | 34778 ft | 488 kts | 139° |
| 2026-05-03 22:20 | 45.23055 | -81.55452 | 34778 ft | 488 kts | 139° |
| 2026-05-03 22:21 | 45.18167 | -81.48999 | 34785 ft | 488 kts | 139° |
| 2026-05-03 22:21 | 45.13198 | -81.42474 | 34788 ft | 487 kts | 140° |
| 2026-05-03 22:22 | 45.08220 | -81.35963 | 34786 ft | 487 kts | 140° |
| 2026-05-03 22:22 | 45.03219 | -81.29423 | 34790 ft | 486 kts | 140° |
| 2026-05-03 22:23 | 44.98250 | -81.22936 | 34793 ft | 486 kts | 140° |
| 2026-05-03 22:23 | 44.93282 | -81.16457 | 34796 ft | 486 kts | 140° |
| 2026-05-03 22:24 | 44.88297 | -81.09990 | 34798 ft | 486 kts | 140° |
| 2026-05-03 22:24 | 44.83282 | -81.03499 | 34803 ft | 486 kts | 140° |
| 2026-05-03 22:25 | 44.78297 | -80.97055 | 34802 ft | 486 kts | 140° |
| 2026-05-03 22:25 | 44.73307 | -80.90623 | 34810 ft | 486 kts | 140° |
| 2026-05-03 22:25 | 44.70841 | -80.87447 | 34643 ft | 487 kts | 140° |
| 2026-05-03 22:26 | 44.68343 | -80.84242 | 34423 ft | 486 kts | 140° |
| 2026-05-03 22:26 | 44.65869 | -80.81069 | 33539 ft | 490 kts | 140° |
| 2026-05-03 22:26 | 44.63318 | -80.77802 | 32436 ft | 496 kts | 140° |
| 2026-05-03 22:26 | 44.60755 | -80.74528 | 31444 ft | 498 kts | 140° |
| 2026-05-03 22:27 | 44.58303 | -80.71400 | 30661 ft | 495 kts | 140° |
| 2026-05-03 22:27 | 44.55756 | -80.68149 | 29623 ft | 497 kts | 139° |
| 2026-05-03 22:27 | 44.53197 | -80.64879 | 28419 ft | 498 kts | 139° |
| 2026-05-03 22:27 | 44.50626 | -80.61596 | 27174 ft | 500 kts | 139° |
| 2026-05-03 22:28 | 44.48063 | -80.58322 | 25895 ft | 502 kts | 139° |
| 2026-05-03 22:28 | 44.45468 | -80.55014 | 24590 ft | 504 kts | 139° |
| 2026-05-03 22:28 | 44.42875 | -80.51722 | 23567 ft | 500 kts | 140° |
| 2026-05-03 22:28 | 44.40313 | -80.48480 | 22481 ft | 492 kts | 140° |
| 2026-05-03 22:29 | 44.37828 | -80.45335 | 21170 ft | 483 kts | 140° |
| 2026-05-03 22:29 | 44.35361 | -80.42210 | 19941 ft | 474 kts | 140° |
| 2026-05-03 22:29 | 44.32924 | -80.39125 | 19064 ft | 459 kts | 140° |
| 2026-05-03 22:29 | 44.30587 | -80.36176 | 18248 ft | 446 kts | 140° |
| 2026-05-03 22:30 | 44.28343 | -80.33350 | 17402 ft | 434 kts | 140° |
| 2026-05-03 22:30 | 44.26129 | -80.30567 | 16669 ft | 423 kts | 140° |
| 2026-05-03 22:30 | 44.23971 | -80.27862 | 15950 ft | 414 kts | 140° |
| 2026-05-03 22:30 | 44.21846 | -80.25200 | 15397 ft | 410 kts | 140° |
| 2026-05-03 22:31 | 44.19726 | -80.22546 | 14729 ft | 409 kts | 140° |
| 2026-05-03 22:31 | 44.17610 | -80.19898 | 14171 ft | 407 kts | 140° |
| 2026-05-03 22:31 | 44.15542 | -80.17314 | 14035 ft | 391 kts | 140° |
| 2026-05-03 22:31 | 44.13550 | -80.14829 | 13915 ft | 376 kts | 140° |
| 2026-05-03 22:32 | 44.11634 | -80.12438 | 13789 ft | 363 kts | 140° |
| 2026-05-03 22:32 | 44.09792 | -80.10137 | 13670 ft | 351 kts | 140° |
| 2026-05-03 22:32 | 44.08006 | -80.07905 | 13526 ft | 340 kts | 140° |
| 2026-05-03 22:32 | 44.06268 | -80.05736 | 13358 ft | 331 kts | 140° |
| 2026-05-03 22:33 | 44.04568 | -80.03616 | 13179 ft | 326 kts | 140° |
| 2026-05-03 22:33 | 44.02887 | -80.01523 | 13084 ft | 326 kts | 140° |
| 2026-05-03 22:33 | 44.01126 | -79.99552 | 12909 ft | 324 kts | 149° |
| 2026-05-03 22:33 | 43.99224 | -79.97844 | 12414 ft | 326 kts | 150° |
| 2026-05-03 22:34 | 43.97324 | -79.96160 | 12098 ft | 321 kts | 150° |
| 2026-05-03 22:34 | 43.95440 | -79.94500 | 11716 ft | 320 kts | 151° |
| 2026-05-03 22:34 | 43.93589 | -79.92871 | 11343 ft | 319 kts | 151° |
| 2026-05-03 22:34 | 43.91727 | -79.91234 | 10969 ft | 317 kts | 151° |
| 2026-05-03 22:35 | 43.89868 | -79.89595 | 10594 ft | 315 kts | 151° |
| 2026-05-03 22:35 | 43.88036 | -79.87979 | 10379 ft | 308 kts | 151° |
| 2026-05-03 22:35 | 43.86257 | -79.86403 | 10249 ft | 297 kts | 151° |
| 2026-05-03 22:35 | 43.84565 | -79.84840 | 10126 ft | 290 kts | 144° |
| 2026-05-03 22:36 | 43.83097 | -79.82965 | 9979 ft | 283 kts | 139° |
| 2026-05-03 22:36 | 43.81681 | -79.81101 | 9726 ft | 280 kts | 139° |
| 2026-05-03 22:36 | 43.80276 | -79.79256 | 9295 ft | 276 kts | 140° |
| 2026-05-03 22:36 | 43.78888 | -79.77434 | 8806 ft | 275 kts | 139° |
| 2026-05-03 22:37 | 43.77515 | -79.75617 | 8317 ft | 272 kts | 137° |
| 2026-05-03 22:37 | 43.76536 | -79.73405 | 7810 ft | 272 kts | 105° |
| 2026-05-03 22:37 | 43.76497 | -79.70844 | 7292 ft | 266 kts | 71° |
| 2026-05-03 22:37 | 43.77343 | -79.68657 | 6600 ft | 262 kts | 43° |
| 2026-05-03 22:38 | 43.78625 | -79.66805 | 5969 ft | 264 kts | 41° |
| 2026-05-03 22:38 | 43.79858 | -79.65016 | 5824 ft | 248 kts | 41° |
| 2026-05-03 22:38 | 43.81000 | -79.63342 | 5749 ft | 232 kts | 41° |
| 2026-05-03 22:38 | 43.82097 | -79.61740 | 5649 ft | 228 kts | 41° |
| 2026-05-03 22:39 | 43.83161 | -79.60189 | 5529 ft | 215 kts | 40° |
| 2026-05-03 22:39 | 43.84161 | -79.58730 | 5331 ft | 208 kts | 40° |
| 2026-05-03 22:39 | 43.85156 | -79.57283 | 5056 ft | 206 kts | 40° |
| 2026-05-03 22:39 | 43.86116 | -79.55816 | 4732 ft | 207 kts | 50° |
| 2026-05-03 22:40 | 43.86605 | -79.53930 | 4380 ft | 213 kts | 85° |
| 2026-05-03 22:40 | 43.86294 | -79.51946 | 4009 ft | 212 kts | 122° |
| 2026-05-03 22:40 | 43.85287 | -79.50529 | 3631 ft | 205 kts | 156° |
| 2026-05-03 22:40 | 43.83959 | -79.50057 | 3331 ft | 194 kts | 187° |
| 2026-05-03 22:41 | 43.82680 | -79.50447 | 3053 ft | 186 kts | 204° |
| 2026-05-03 22:41 | 43.81433 | -79.50986 | 2762 ft | 187 kts | 202° |
| 2026-05-03 22:41 | 43.80195 | -79.51510 | 2490 ft | 186 kts | 202° |
| 2026-05-03 22:41 | 43.78956 | -79.52031 | 2185 ft | 185 kts | 202° |
| 2026-05-03 22:42 | 43.77721 | -79.52552 | 2016 ft | 187 kts | 203° |
| 2026-05-03 22:42 | 43.76542 | -79.53236 | 1993 ft | 183 kts | 222° |
| 2026-05-03 22:42 | 43.75666 | -79.54437 | 2054 ft | 169 kts | 231° |
| 2026-05-03 22:42 | 43.74892 | -79.55557 | 2002 ft | 152 kts | 231° |
| 2026-05-03 22:43 | 43.74196 | -79.56561 | 2010 ft | 140 kts | 232° |
| 2026-05-03 22:43 | 43.73528 | -79.57532 | 1910 ft | 139 kts | 232° |
| 2026-05-03 22:43 | 43.72866 | -79.58495 | 1686 ft | 138 kts | 232° |
| 2026-05-03 22:43 | 43.72200 | -79.59462 | 1481 ft | 139 kts | 231° |
| 2026-05-03 22:44 | 43.71548 | -79.60407 | 1303 ft | 131 kts | 230° |
| 2026-05-03 22:44 | 43.70938 | -79.61294 | 1107 ft | 125 kts | 230° |
| 2026-05-03 22:44 | 43.70353 | -79.62146 | 933 ft | 122 kts | 230° |
| 2026-05-03 22:44 | 43.69781 | -79.62980 | 752 ft | 121 kts | 229° |
| 2026-05-03 22:45 | 43.69194 | -79.63816 | 577 ft | 119 kts | 230° |
| 2026-05-03 22:45 | 43.68701 | -79.64543 | 564 ft | 83 kts | 228° |
| 2026-05-03 22:45 | 43.68435 | -79.64943 | 568 ft | 29 kts | 244° |
| 2026-05-03 22:45 | 43.68311 | -79.65139 | 571 ft | 28 kts | 226° |
| 2026-05-03 22:46 | 43.68121 | -79.65377 | 564 ft | 42 kts | 215° |
| 2026-05-03 22:46 | 43.67935 | -79.65479 | 565 ft | 21 kts | 195° |
| 2026-05-03 22:46 | 43.67857 | -79.65463 | 570 ft | 0 kts | 135° |
| 2026-05-03 22:47 | 43.67849 | -79.65453 | 568 ft | 3 kts | 136° |
| 2026-05-03 22:47 | 43.67838 | -79.65428 | 563 ft | 6 kts | 115° |
| 2026-05-03 22:47 | 43.67857 | -79.65361 | 564 ft | 11 kts | 49° |
| 2026-05-03 22:48 | 43.67927 | -79.65247 | 565 ft | 20 kts | 51° |
| 2026-05-03 22:48 | 43.68046 | -79.65084 | 569 ft | 28 kts | 44° |
| 2026-05-03 22:48 | 43.68173 | -79.64904 | 568 ft | 20 kts | 47° |
| 2026-05-03 22:48 | 43.68257 | -79.64780 | 570 ft | 16 kts | 46° |
| 2026-05-03 22:49 | 43.68330 | -79.64677 | 568 ft | 15 kts | 46° |
| 2026-05-03 22:49 | 43.68403 | -79.64569 | 567 ft | 15 kts | 46° |
| 2026-05-03 22:49 | 43.68469 | -79.64473 | 567 ft | 15 kts | 47° |
| 2026-05-03 22:49 | 43.68549 | -79.64355 | 569 ft | 18 kts | 45° |
| 2026-05-03 22:50 | 43.68635 | -79.64232 | 571 ft | 18 kts | 46° |
| 2026-05-03 22:50 | 43.68736 | -79.64084 | 569 ft | 24 kts | 46° |
| 2026-05-03 22:50 | 43.68860 | -79.63907 | 572 ft | 28 kts | 47° |
| 2026-05-03 22:50 | 43.68997 | -79.63708 | 569 ft | 28 kts | 46° |
| 2026-05-03 22:51 | 43.69055 | -79.63528 | 566 ft | 16 kts | 152° |
| 2026-05-03 22:51 | 43.69012 | -79.63515 | 566 ft | 4 kts | 176° |
| 2026-05-03 22:51 | 43.68967 | -79.63508 | 568 ft | 16 kts | 165° |
| 2026-05-03 22:51 | 43.68874 | -79.63407 | 570 ft | 11 kts | 136° |
| 2026-05-03 22:52 | 43.68827 | -79.63349 | 564 ft | 17 kts | 139° |
| 2026-05-03 22:52 | 43.68726 | -79.63212 | 565 ft | 23 kts | 133° |
| 2026-05-03 22:52 | 43.68656 | -79.63081 | 565 ft | 17 kts | 108° |
| 2026-05-03 22:52 | 43.68604 | -79.62907 | 562 ft | 23 kts | 135° |
| 2026-05-03 22:53 | 43.68486 | -79.62723 | 563 ft | 27 kts | 106° |
| 2026-05-03 22:53 | 43.68490 | -79.62546 | 562 ft | 12 kts | 89° |
| 2026-05-03 22:53 | 43.68492 | -79.62481 | 565 ft | 0 kts | 88° |